Victoria, MN

8:08 PM CST on December 08, 2016 (GMT -0600)
Woodlands | | Change Station

Elev 1010 ft 44.85 °N, 93.64 °W | Updated 36 seconds ago

Overcast
Overcast
17.7 °F
Feels Like 9 °F
N
6.0
Wind Variable Wind from WNW

Today
High -- | Low -- °F
--% Chance of Precip.
Yesterday
High -- | Low -- °F
Precip. -- in
Pressure 30.52 in
Visibility 10.0 miles
Clouds Overcast 3000 ft
Windchill 9 °F
Dew Point 12 °F
Humidity 79%
Rainfall 0.00 in
Snow Depth Not available.
7:40 AM 4:33 PM
Waxing Gibbous, 69% visible
METAR KFCM 090153Z 27007KT 10SM OVC030 M06/M12 A3047 RMK AO2 SLP335 T10611117
Pressure 30.52 in
Visibility 10.0 miles
Clouds Overcast 3000 ft
Windchill 9 °F
Dew Point 12 °F
Humidity 79%
Rainfall 0.00 in
Snow Depth Not available.
7:40 AM 4:33 PM
Waxing Gibbous, 69% visible
METAR KFCM 090153Z 27007KT 10SM OVC030 M06/M12 A3047 RMK AO2 SLP335 T10611117

10-Day Weather Forecast

Almanac

Astronomy

Dec. 08, 2016 Rise Set
Actual Time
Civil Twilight
Nautical Twilight
Astronomical Twilight
Moon
Length of Visible Light
Length of Day
Tomorrow will be .
, % of the Moon is Illuminated

Today's Extremes

State Highs State Lows

Community

WunderPhotos

Upload Photos

1,956,351 photos uploaded!

WunderBlog® & News

Nearby

Air Quality

  Air Quality AQ Index Pollutant
Not available.

Snow Depth

Station Depth Elevation

Earthquake Activity

City Distance Mag. Time & Date
Minimum magnitude displayed is 2.5.

Coastal Water Temperatures

Place Temperature

Stations

Nearby Weather Stations

Station Location Temp. Windchill Dew Point Humidity Wind Precip. Elev Updated Type
                   

Watches & Warnings

There are currently no watches in effect.